Time;durP1;ratioP1;P1;durP2;ratioP2;P2;SDS_P1;SDS_P2;PMS_P1;PMS_P2;Temp;Humidity;BMP_temperature;BMP_pressure;BME280_temperature;BME280_humidity;BME280_pressure;Samples;Min_cycle;Max_cycle;Signal;HPM_P1;HPM_P2
2023/04/21 00:02:45;;;;;;;183.73;62.83;;;3.00;99.90;;;;;;5051035;28;20105;-87
2023/04/21 00:05:32;;;;;;;185.70;65.05;;;3.00;99.90;;;;;;5045677;28;20104;-87
2023/04/21 00:08:22;;;;;;;151.27;60.95;;;3.00;99.90;;;;;;5044845;28;20036;-87
2023/04/21 00:11:10;;;;;;;170.05;61.80;;;3.00;99.90;;;;;;5047385;28;20084;-87
2023/04/21 00:13:57;;;;;;;160.63;61.53;;;2.90;99.90;;;;;;5055219;28;20056;-87
2023/04/21 00:16:45;;;;;;;147.38;60.75;;;2.80;99.90;;;;;;5051204;28;20080;-87
2023/04/21 00:19:34;;;;;;;172.88;64.43;;;2.90;99.90;;;;;;5054336;28;20041;-87
2023/04/21 00:22:21;;;;;;;152.23;60.40;;;2.80;99.90;;;;;;5052450;28;20362;-90
2023/04/21 00:25:11;;;;;;;146.88;58.67;;;2.80;99.90;;;;;;5060783;28;20123;-87
2023/04/21 00:27:58;;;;;;;151.85;59.38;;;2.80;99.90;;;;;;5037891;28;20040;-88
2023/04/21 00:30:45;;;;;;;129.38;54.25;;;2.70;99.90;;;;;;5041055;28;20045;-88
2023/04/21 00:33:35;;;;;;;136.57;54.97;;;2.60;99.90;;;;;;5050744;28;20726;-89
2023/04/21 00:36:27;;;;;;;144.32;56.72;;;2.60;99.90;;;;;;5048011;28;20098;-90
2023/04/21 00:39:14;;;;;;;145.70;57.95;;;2.70;99.90;;;;;;5059950;28;20048;-87
2023/04/21 00:42:02;;;;;;;214.35;62.55;;;2.70;99.90;;;;;;5059309;28;20048;-88
2023/04/21 00:44:49;;;;;;;169.82;60.65;;;2.70;99.90;;;;;;5043164;28;20041;-88
2023/04/21 00:47:36;;;;;;;156.75;59.92;;;2.70;99.90;;;;;;5043910;28;20037;-88
2023/04/21 00:50:26;;;;;;;140.07;56.15;;;2.60;99.90;;;;;;5055024;28;20096;-89
2023/04/21 00:53:14;;;;;;;140.85;56.55;;;2.50;99.90;;;;;;5042251;28;20041;-88
2023/04/21 00:56:02;;;;;;;152.05;56.88;;;2.40;99.90;;;;;;5054432;28;20063;-89
2023/04/21 00:58:49;;;;;;;156.95;58.92;;;2.40;99.90;;;;;;5054907;28;20041;-88
2023/04/21 01:01:38;;;;;;;151.35;58.03;;;2.30;99.90;;;;;;5043510;28;20067;-89
2023/04/21 01:04:27;;;;;;;163.00;57.60;;;2.30;99.90;;;;;;5050156;28;20033;-88
2023/04/21 01:07:14;;;;;;;180.25;58.28;;;2.20;99.90;;;;;;5049532;28;20174;-89
2023/04/21 01:10:03;;;;;;;150.85;55.65;;;2.20;99.90;;;;;;5051143;28;20041;-87
2023/04/21 01:12:51;;;;;;;148.15;56.75;;;2.20;99.90;;;;;;5036201;28;20153;-88
2023/04/21 01:15:38;;;;;;;158.18;58.92;;;2.30;99.90;;;;;;5048501;28;20446;-89
2023/04/21 01:18:26;;;;;;;165.70;58.00;;;2.20;99.90;;;;;;5051767;28;20418;-87
2023/04/21 01:21:15;;;;;;;147.75;54.45;;;2.10;99.90;;;;;;5045396;28;20072;-88
2023/04/21 01:24:03;;;;;;;132.65;51.20;;;1.90;99.90;;;;;;5049727;28;20048;-88
2023/04/21 01:26:50;;;;;;;125.13;50.80;;;1.80;99.90;;;;;;5053053;28;20138;-88
2023/04/21 01:29:41;;;;;;;151.90;54.08;;;1.60;99.90;;;;;;5049707;28;20323;-88
2023/04/21 01:32:30;;;;;;;115.18;48.70;;;1.50;99.90;;;;;;5041410;28;20048;-89
2023/04/21 01:35:19;;;;;;;125.57;48.90;;;1.60;99.90;;;;;;5053995;28;20127;-88
2023/04/21 01:38:09;;;;;;;119.03;49.95;;;1.50;99.90;;;;;;5052103;28;20051;-88
2023/04/21 01:40:57;;;;;;;139.75;50.28;;;1.40;99.90;;;;;;5043279;28;20068;-89
2023/04/21 01:43:44;;;;;;;134.75;49.35;;;1.30;99.90;;;;;;5047636;28;20493;-88
2023/04/21 01:46:32;;;;;;;141.05;51.65;;;1.20;99.90;;;;;;5064131;28;20053;-87
2023/04/21 01:49:21;;;;;;;142.63;51.30;;;1.20;99.90;;;;;;5061241;28;20069;-87
2023/04/21 01:52:11;;;;;;;125.95;50.78;;;1.20;99.90;;;;;;5059711;28;20163;-88
2023/04/21 01:55:01;;;;;;;128.85;49.13;;;1.10;99.90;;;;;;5049660;28;20617;-88
2023/04/21 01:57:48;;;;;;;141.75;50.58;;;1.10;99.90;;;;;;5042932;28;20067;-88
2023/04/21 02:00:35;;;;;;;132.55;48.67;;;1.00;99.90;;;;;;5050304;28;20064;-88
2023/04/21 02:03:22;;;;;;;126.55;49.10;;;0.90;99.90;;;;;;5037878;28;20460;-89
2023/04/21 02:06:13;;;;;;;134.30;47.83;;;0.90;99.90;;;;;;5039232;28;20151;-87
2023/04/21 02:09:06;;;;;;;125.50;47.13;;;1.00;99.90;;;;;;5051278;28;20056;-88
2023/04/21 02:11:56;;;;;;;120.50;46.75;;;1.00;99.90;;;;;;5031422;28;20132;-89
2023/04/21 02:14:51;;;;;;;122.25;45.83;;;1.00;99.90;;;;;;5052241;28;20099;-88
2023/04/21 02:17:38;;;;;;;136.93;48.85;;;1.00;99.90;;;;;;5049696;28;20091;-88
2023/04/21 02:20:38;;;;;;;119.38;45.25;;;1.00;99.90;;;;;;5042355;28;20056;-88
2023/04/21 02:23:25;;;;;;;94.03;39.53;;;1.00;99.90;;;;;;5045743;28;20041;-88
2023/04/21 02:26:14;;;;;;;121.18;46.38;;;1.10;99.90;;;;;;5063499;28;20041;-88
2023/04/21 02:29:02;;;;;;;109.57;41.22;;;1.30;99.90;;;;;;5041913;28;20049;-87
2023/04/21 02:31:49;;;;;;;96.25;40.17;;;1.80;99.90;;;;;;5050776;28;20111;-87
2023/04/21 02:34:51;;;;;;;96.20;39.97;;;2.10;99.90;;;;;;5047510;28;20094;-87
2023/04/21 02:37:38;;;;;;;103.93;41.67;;;2.20;99.90;;;;;;5042070;28;20450;-88
2023/04/21 02:40:26;;;;;;;128.77;46.92;;;2.40;99.90;;;;;;5050975;28;20053;-87
2023/04/21 02:43:18;;;;;;;108.13;42.75;;;2.40;99.90;;;;;;5056427;28;20036;-88
2023/04/21 02:46:06;;;;;;;102.20;41.53;;;2.30;99.90;;;;;;5051602;28;20114;-88
2023/04/21 02:48:54;;;;;;;102.18;40.65;;;2.30;99.90;;;;;;5050794;28;20053;-86
2023/04/21 02:51:41;;;;;;;90.97;37.05;;;2.30;99.90;;;;;;5050854;28;20124;-87
2023/04/21 02:54:30;;;;;;;96.72;36.58;;;2.30;99.90;;;;;;5056191;28;20370;-88
2023/04/21 02:57:20;;;;;;;86.60;34.05;;;2.20;99.90;;;;;;5034575;28;20052;-86
2023/04/21 03:00:11;;;;;;;78.70;34.70;;;2.20;99.90;;;;;;5050590;28;20094;-88
2023/04/21 03:02:58;;;;;;;75.53;34.58;;;2.20;99.90;;;;;;5048736;28;20041;-87
2023/04/21 03:05:48;;;;;;;90.35;36.00;;;2.10;99.90;;;;;;5051171;28;20045;-86
2023/04/21 03:08:38;;;;;;;90.82;34.10;;;2.00;99.90;;;;;;5051958;28;20452;-88
2023/04/21 03:11:28;;;;;;;69.97;32.70;;;2.00;99.90;;;;;;5052560;28;20051;-89
2023/04/21 03:14:25;;;;;;;73.32;33.17;;;1.90;99.90;;;;;;5052111;28;20036;-88
2023/04/21 03:17:13;;;;;;;69.13;31.30;;;1.80;99.90;;;;;;5058497;28;20052;-87
2023/04/21 03:20:03;;;;;;;78.20;33.67;;;1.80;99.90;;;;;;5054568;28;20045;-89
2023/04/21 03:22:53;;;;;;;93.13;36.65;;;1.70;99.90;;;;;;5044595;28;20053;-91
2023/04/21 03:25:40;;;;;;;94.75;36.10;;;1.60;99.90;;;;;;5050788;28;20041;-87
2023/04/21 03:28:32;;;;;;;98.90;35.80;;;1.60;99.90;;;;;;5053617;28;20045;-90
2023/04/21 03:31:20;;;;;;;100.72;35.78;;;1.50;99.90;;;;;;5049591;28;20071;-89
2023/04/21 03:34:07;;;;;;;98.70;36.95;;;1.30;99.90;;;;;;5047579;28;20450;-89
2023/04/21 03:36:54;;;;;;;104.03;36.80;;;1.30;99.90;;;;;;5052012;28;20060;-88
2023/04/21 03:39:42;;;;;;;91.20;35.67;;;1.30;99.90;;;;;;5057065;28;20053;-89
2023/04/21 03:42:29;;;;;;;93.80;37.35;;;1.20;99.90;;;;;;5046834;28;20059;-90
2023/04/21 03:45:21;;;;;;;138.20;46.83;;;1.10;99.90;;;;;;5032007;28;20099;-90
2023/04/21 03:48:11;;;;;;;74.78;28.58;;;1.10;99.90;;;;;;5049105;28;20076;-89
2023/04/21 03:50:58;;;;;;;109.35;38.47;;;1.10;99.90;;;;;;5048665;28;20378;-88
2023/04/21 03:53:45;;;;;;;126.95;40.08;;;1.00;99.90;;;;;;5050669;28;20103;-89
2023/04/21 03:56:35;;;;;;;125.85;41.40;;;0.90;99.90;;;;;;5052925;28;20116;-90
2023/04/21 03:59:25;;;;;;;130.60;41.65;;;0.80;99.90;;;;;;5050963;28;20076;-90
2023/04/21 04:02:31;;;;;;;118.18;39.13;;;0.70;99.90;;;;;;5056163;28;20045;-89
2023/04/21 04:05:21;;;;;;;107.25;37.63;;;0.70;99.90;;;;;;5050027;28;20041;-89
2023/04/21 04:08:12;;;;;;;109.93;38.05;;;0.70;99.90;;;;;;5040870;28;20041;-87
2023/04/21 04:10:59;;;;;;;100.03;37.35;;;0.70;99.90;;;;;;5052815;28;20537;-90
2023/04/21 04:13:46;;;;;;;118.07;43.03;;;0.60;99.90;;;;;;5038226;28;20051;-88
2023/04/21 04:16:34;;;;;;;136.27;46.67;;;0.60;99.90;;;;;;5053571;28;20433;-90
2023/04/21 04:19:41;;;;;;;138.15;39.95;;;0.70;99.90;;;;;;5049496;28;20053;-89
2023/04/21 04:22:41;;;;;;;107.10;35.80;;;0.80;99.90;;;;;;5054545;28;20041;-88
2023/04/21 04:25:28;;;;;;;114.03;38.88;;;0.70;99.90;;;;;;5056034;28;20130;-89
2023/04/21 04:28:16;;;;;;;101.68;35.10;;;0.70;99.90;;;;;;5045890;28;20053;-88
2023/04/21 04:31:12;;;;;;;123.10;38.80;;;0.60;99.90;;;;;;5061981;28;20457;-89
2023/04/21 04:34:06;;;;;;;89.03;35.13;;;0.60;99.90;;;;;;5064981;28;20052;-88
2023/04/21 04:36:53;;;;;;;100.50;37.35;;;0.70;99.90;;;;;;5062297;28;20041;-85
2023/04/21 04:39:40;;;;;;;110.57;37.63;;;0.70;99.90;;;;;;5054383;28;20081;-84
2023/04/21 04:42:31;;;;;;;102.38;37.25;;;0.80;99.90;;;;;;5059982;28;20052;-84
2023/04/21 04:45:31;;;;;;;122.38;39.75;;;0.90;99.90;;;;;;5049469;28;20215;-84
2023/04/21 04:48:19;;;;;;;124.28;38.13;;;1.10;99.90;;;;;;5047925;28;20056;-85
2023/04/21 04:51:06;;;;;;;125.32;39.78;;;1.10;99.90;;;;;;5050831;28;20045;-85
2023/04/21 04:53:53;;;;;;;102.72;36.78;;;1.20;99.90;;;;;;5053098;28;20037;-84
2023/04/21 04:56:41;;;;;;;109.05;39.33;;;1.30;99.90;;;;;;5041319;28;20052;-84
2023/04/21 04:59:31;;;;;;;139.50;40.90;;;1.30;99.90;;;;;;5053265;28;20037;-86
2023/04/21 05:02:24;;;;;;;114.72;38.70;;;1.40;99.90;;;;;;5052117;28;20033;-89
2023/04/21 05:05:13;;;;;;;116.18;38.28;;;1.40;99.90;;;;;;5047752;28;20097;-89
2023/04/21 05:08:02;;;;;;;132.27;45.08;;;1.40;99.90;;;;;;5053086;28;20167;-90
2023/04/21 05:11:14;;;;;;;123.57;43.42;;;1.50;99.90;;;;;;5049416;28;20442;-89
2023/04/21 05:14:01;;;;;;;116.93;41.85;;;1.40;99.90;;;;;;5054113;28;20413;-88
2023/04/21 05:16:51;;;;;;;115.25;40.83;;;1.50;99.90;;;;;;5053339;28;20053;-85
2023/04/21 05:19:38;;;;;;;125.20;41.85;;;1.50;99.90;;;;;;5051312;28;20761;-86
2023/04/21 05:22:25;;;;;;;130.02;44.90;;;1.60;99.90;;;;;;5038657;28;20051;-87
2023/04/21 05:25:15;;;;;;;132.32;44.92;;;1.80;99.90;;;;;;5037209;28;20045;-86
2023/04/21 05:28:03;;;;;;;130.50;43.85;;;2.00;99.90;;;;;;5032257;28;20174;-87
2023/04/21 05:30:50;;;;;;;149.10;46.90;;;1.90;99.90;;;;;;5043229;28;20098;-89
2023/04/21 05:33:38;;;;;;;126.22;44.22;;;2.00;99.90;;;;;;5049369;28;20044;-87
2023/04/21 05:36:29;;;;;;;113.82;45.08;;;2.20;99.90;;;;;;5040457;28;20083;-88
2023/04/21 05:39:33;;;;;;;152.98;51.17;;;2.30;99.90;;;;;;5040787;28;20046;-88
2023/04/21 05:42:21;;;;;;;133.70;48.75;;;2.40;99.90;;;;;;5047848;28;20045;-91
2023/04/21 05:49:14;;;;;;;144.38;44.83;;;2.50;99.90;;;;;;5054817;28;20021;-91
2023/04/21 05:52:17;;;;;;;149.77;46.25;;;2.40;99.90;;;;;;5044156;28;20051;-90
2023/04/21 05:55:13;;;;;;;114.15;40.08;;;2.40;99.90;;;;;;5055497;28;20049;-94
2023/04/21 06:07:47;;;;;;;126.47;41.25;;;2.50;99.90;;;;;;4902868;29;20081;-93
2023/04/21 06:19:55;;;;;;;;;;;;;;;;;;;;;
2023/04/21 06:45:07;;;;;;;;;;;;;;;;;;;;;
2023/04/21 06:48:31;;;;;;;136.88;48.55;;;4.70;99.90;;;;;;6071130;23;20023;-90
2023/04/21 06:51:36;;;;;;;136.52;47.92;;;4.70;99.90;;;;;;6056245;23;20034;-89
2023/04/21 06:54:41;;;;;;;129.60;47.05;;;4.70;99.90;;;;;;6047523;23;20034;-90
2023/04/21 06:58:09;;;;;;;;;;;;;;;;;;;;;
2023/04/21 07:01:27;;;;;;;121.90;44.28;;;4.50;99.90;;;;;;6069647;23;20086;-89
2023/04/21 07:04:31;;;;;;;;;;;;;;;;;;;;;
2023/04/21 07:09:00;;;;;;;;;;;;;;;;;;;;;
2023/04/21 08:53:12;;;;;;;;;;;16.10;99.90;;;;;;5940204;24;20017;-91
2023/04/21 09:01:18;;;;;;;6.30;5.50;;;16.90;99.90;;;;;;5904018;24;20309;-92
2023/04/21 09:08:27;;;;;;;;;;;17.20;99.90;;;;;;5943005;24;20960;-91
2023/04/21 09:12:08;;;;;;;;;;;;;;;;;;;;;
2023/04/21 09:23:35;;;;;;;11.73;6.32;;;16.50;99.90;;;;;;5992259;23;20026;-90
2023/04/21 09:26:41;;;;;;;7.18;6.45;;;16.50;99.90;;;;;;6005882;23;20023;-90
2023/04/21 09:30:01;;;;;;;7.07;6.38;;;17.30;99.90;;;;;;6095371;23;20026;-91
2023/04/21 09:38:02;;;;;;;6.30;5.30;;;18.50;99.90;;;;;;6098277;23;20006;-89
2023/04/21 09:54:24;;;;;;;4.75;4.20;;;19.00;99.90;;;;;;5853983;23;20056;-91
2023/04/21 10:10:25;;;;;;;;;;;;;;;;;;;;;
2023/04/21 10:34:28;;;;;;;5.05;4.13;;;21.50;83.10;;;;;;5969358;23;20087;-90
2023/04/21 10:38:08;;;;;;;4.57;4.07;;;21.40;47.90;;;;;;5958453;24;20052;-91
2023/04/21 10:41:45;;;;;;;;;;;;;;;;;;;;;
2023/04/21 11:40:08;;;;;;;;;;;;;;;;;;;;;
2023/04/21 13:01:16;;;;;;;7.95;6.03;;;25.30;1.00;;;;;;6113560;23;20044;-89
2023/04/21 13:04:23;;;;;;;6.88;5.93;;;24.90;1.00;;;;;;6109962;23;20033;-89
2023/04/21 13:07:14;;;;;;;5.80;5.18;;;25.20;48.70;;;;;;6114861;23;20026;-90
2023/04/21 13:10:05;;;;;;;9.60;6.10;;;25.90;18.40;;;;;;6102280;23;20353;-90
2023/04/21 13:12:55;;;;;;;6.25;5.45;;;25.50;1.00;;;;;;6101008;23;20030;-91
2023/04/21 13:20:11;;;;;;;8.27;5.70;;;26.60;73.40;;;;;;6110458;23;20007;-89
2023/04/21 13:23:10;;;;;;;6.93;5.50;;;26.90;66.10;;;;;;6113101;22;20052;-90
2023/04/21 13:26:23;;;;;;;6.30;5.47;;;26.60;77.60;;;;;;6108236;23;20074;-89
2023/04/21 13:29:33;;;;;;;7.75;5.00;;;25.90;83.40;;;;;;6105148;23;20022;-90
2023/04/21 13:32:33;;;;;;;5.00;4.60;;;26.50;28.10;;;;;;6103554;23;20037;-89
2023/04/21 13:35:57;;;;;;;;;;;;;;;;;;;;;
2023/04/21 13:39:28;;;;;;;4.88;4.22;;;26.50;18.40;;;;;;6115161;22;20015;-89
2023/04/21 13:42:32;;;;;;;;;;;26.40;9.90;;;;;;6093384;23;20027;-92
2023/04/21 13:45:50;;;;;;;5.65;4.30;;;26.20;10.70;;;;;;6103771;23;19928;-92
2023/04/21 13:48:55;;;;;;;5.03;4.13;;;26.10;32.30;;;;;;6090907;23;20168;-92
2023/04/21 13:51:56;;;;;;;5.77;4.43;;;26.20;24.30;;;;;;6094225;23;20030;-88
2023/04/21 13:54:43;;;;;;;3.88;3.42;;;26.80;2.00;;;;;;6095148;23;20084;-90
2023/04/21 13:57:35;;;;;;;3.47;3.17;;;27.40;3.30;;;;;;6095929;23;20036;-86
2023/04/21 14:00:23;;;;;;;3.50;3.20;;;27.70;1.00;;;;;;6095816;23;20054;-90
2023/04/21 14:03:15;;;;;;;4.22;3.75;;;27.00;6.60;;;;;;6094810;23;20030;-85
2023/04/21 14:06:03;;;;;;;;;;;26.80;1.00;;;;;;6095738;23;20039;-87
2023/04/21 14:08:50;;;;;;;5.07;4.30;;;26.90;1.00;;;;;;6093498;23;20012;-87
2023/04/21 14:11:39;;;;;;;4.30;3.00;;;27.10;1.00;;;;;;6091717;23;20030;-87
2023/04/21 14:14:27;;;;;;;4.78;3.83;;;27.40;1.00;;;;;;6089571;23;20038;-90
2023/04/21 14:17:25;;;;;;;6.65;4.47;;;25.20;1.00;;;;;;6092994;23;20025;-86
2023/04/21 14:20:13;;;;;;;5.30;3.28;;;25.50;1.00;;;;;;6090691;23;20073;-88
2023/04/21 14:23:00;;;;;;;5.45;3.45;;;24.80;1.00;;;;;;6091619;23;20026;-86
2023/04/21 14:25:47;;;;;;;4.47;2.83;;;25.20;1.00;;;;;;6092165;23;20030;-88
2023/04/21 14:28:34;;;;;;;3.40;3.10;;;25.80;1.00;;;;;;6094144;23;20026;-88
2023/04/21 14:31:21;;;;;;;4.43;3.50;;;26.00;1.00;;;;;;6092947;23;20060;-86
2023/04/21 14:34:09;;;;;;;3.25;2.80;;;26.00;1.00;;;;;;6091727;23;20030;-85
2023/04/21 14:36:56;;;;;;;4.13;3.50;;;25.90;1.00;;;;;;6093593;23;20038;-86
2023/04/21 14:39:46;;;;;;;3.42;3.08;;;25.40;1.00;;;;;;6092572;23;20425;-86
2023/04/21 14:42:33;;;;;;;3.35;2.72;;;24.00;1.00;;;;;;6092140;23;20711;-88
2023/04/21 14:45:20;;;;;;;4.85;3.58;;;22.60;1.00;;;;;;6093274;23;20026;-90
2023/04/21 14:48:08;;;;;;;3.85;2.97;;;21.10;1.00;;;;;;6092626;23;20023;-91
2023/04/21 14:50:57;;;;;;;3.53;3.22;;;20.20;1.00;;;;;;6091943;23;20030;-90
2023/04/21 14:53:45;;;;;;;4.70;3.08;;;19.90;2.90;;;;;;6089657;23;20080;-89
2023/04/21 14:56:33;;;;;;;4.68;2.78;;;19.40;1.00;;;;;;6092753;23;20033;-87
2023/04/21 14:59:21;;;;;;;2.67;2.47;;;18.70;1.00;;;;;;6094045;23;20085;-90
2023/04/21 15:02:12;;;;;;;3.15;2.72;;;18.30;1.00;;;;;;6093339;23;20057;-88
2023/04/21 15:05:03;;;;;;;4.15;2.40;;;18.20;6.10;;;;;;6093226;23;20037;-89
2023/04/21 15:07:50;;;;;;;2.78;2.53;;;17.90;3.30;;;;;;6092358;23;20053;-87
2023/04/21 15:10:38;;;;;;;3.75;2.50;;;17.80;2.60;;;;;;6094418;23;20030;-87
2023/04/21 15:13:28;;;;;;;3.95;3.00;;;18.30;10.50;;;;;;6091716;23;20026;-86
2023/04/21 15:16:16;;;;;;;5.47;2.83;;;19.00;11.00;;;;;;6093757;23;20027;-88
2023/04/21 15:19:03;;;;;;;2.92;2.40;;;20.20;2.30;;;;;;6091177;23;20034;-89
2023/04/21 15:21:50;;;;;;;2.35;1.85;;;21.40;1.00;;;;;;6091183;23;20026;-87
2023/04/21 15:24:38;;;;;;;6.10;2.92;;;22.30;1.00;;;;;;6094746;23;20026;-88
2023/04/21 15:27:25;;;;;;;3.17;2.88;;;22.70;3.80;;;;;;6093610;23;20395;-87
2023/04/21 15:30:13;;;;;;;5.88;4.22;;;22.00;1.00;;;;;;6093429;23;20030;-90
2023/04/21 15:33:00;;;;;;;5.70;4.55;;;22.10;1.00;;;;;;6092853;23;20030;-88
2023/04/21 15:35:47;;;;;;;2.45;2.17;;;22.40;1.00;;;;;;6092921;23;20027;-86
2023/04/21 15:38:35;;;;;;;3.75;3.10;;;22.20;1.00;;;;;;6092268;23;20026;-86
2023/04/21 15:41:24;;;;;;;2.60;2.30;;;22.10;1.00;;;;;;6094458;23;20337;-88
2023/04/21 15:44:12;;;;;;;2.40;2.20;;;22.40;1.00;;;;;;6093266;23;20030;-90
2023/04/21 15:46:59;;;;;;;3.72;2.55;;;22.40;1.00;;;;;;6092058;23;20058;-88
2023/04/21 15:49:49;;;;;;;4.63;2.30;;;22.30;15.10;;;;;;6096267;23;20035;-90
2023/04/21 15:52:41;;;;;;;2.75;2.47;;;21.70;6.60;;;;;;6093757;23;20044;-93
2023/04/21 15:55:30;;;;;;;2.35;2.15;;;20.70;16.10;;;;;;6093086;23;20050;-90
2023/04/21 15:58:20;;;;;;;2.85;2.55;;;19.80;13.70;;;;;;6094331;23;20054;-91
2023/04/21 16:01:11;;;;;;;4.35;2.42;;;19.10;7.50;;;;;;6095914;23;20050;-92
2023/04/21 16:03:59;;;;;;;2.70;2.50;;;18.80;18.40;;;;;;6093672;23;20034;-93
2023/04/21 16:06:47;;;;;;;3.95;2.70;;;18.90;21.70;;;;;;6096248;23;20027;-91
2023/04/21 16:09:34;;;;;;;3.10;2.30;;;18.80;25.60;;;;;;6094281;23;20096;-93
2023/04/21 16:12:23;;;;;;;2.42;2.20;;;18.70;26.80;;;;;;6094708;23;20108;-92
2023/04/21 16:15:13;;;;;;;5.38;2.33;;;18.50;34.60;;;;;;6093333;23;20034;-92
2023/04/21 16:18:10;;;;;;;3.28;2.58;;;18.30;24.60;;;;;;6096955;23;20038;-91
2023/04/21 16:21:06;;;;;;;2.55;2.30;;;18.00;41.30;;;;;;6096500;23;20022;-91
2023/04/21 16:23:54;;;;;;;4.70;2.72;;;17.70;41.70;;;;;;6095376;23;20050;-93
2023/04/21 16:26:45;;;;;;;2.42;2.20;;;17.40;57.70;;;;;;6096337;23;20027;-90
2023/04/21 16:29:32;;;;;;;3.72;3.28;;;17.20;51.80;;;;;;6095131;23;20041;-92
2023/04/21 16:32:20;;;;;;;3.53;2.72;;;17.10;48.70;;;;;;6095575;23;20030;-89
2023/04/21 16:35:24;;;;;;;2.85;2.55;;;17.00;75.20;;;;;;6098011;23;20019;-91
2023/04/21 16:41:22;;;;;;;4.70;2.17;;;16.70;89.20;;;;;;6095095;23;20338;-91
2023/04/21 16:44:09;;;;;;;4.13;2.47;;;16.60;79.20;;;;;;6095145;23;20034;-92
2023/04/21 16:46:59;;;;;;;17.38;10.07;;;16.50;82.20;;;;;;6094952;23;20433;-89
2023/04/21 16:49:49;;;;;;;10.82;5.25;;;16.50;83.70;;;;;;6095470;23;20027;-91
2023/04/21 16:52:47;;;;;;;47.58;24.88;;;16.50;69.10;;;;;;6094858;23;20462;-89
2023/04/21 16:55:39;;;;;;;5.28;2.40;;;16.40;99.90;;;;;;6098035;23;20026;-89
2023/04/21 16:58:35;;;;;;;3.88;2.80;;;16.30;99.90;;;;;;6096989;23;20042;-89
2023/04/21 17:01:32;;;;;;;6.65;2.95;;;16.20;99.90;;;;;;6075670;23;20421;-91
2023/04/21 17:04:35;;;;;;;4.63;3.80;;;16.20;99.90;;;;;;6089418;23;20105;-91
2023/04/21 17:07:27;;;;;;;2.70;2.03;;;16.20;99.90;;;;;;6095269;23;20026;-90
2023/04/21 17:10:17;;;;;;;2.50;2.22;;;16.40;95.40;;;;;;6096777;23;20030;-88
2023/04/21 17:13:06;;;;;;;9.00;6.05;;;16.50;81.90;;;;;;6094920;23;20030;-90
2023/04/21 17:15:53;;;;;;;1.90;1.27;;;16.50;71.50;;;;;;6094978;23;20026;-90
2023/04/21 17:18:43;;;;;;;1.08;0.90;;;16.60;47.00;;;;;;6095055;23;20033;-89
2023/04/21 17:21:30;;;;;;;1.98;1.13;;;16.50;43.90;;;;;;6095876;23;20027;-91
2023/04/21 17:24:27;;;;;;;1.33;0.90;;;16.40;36.90;;;;;;6095511;23;20026;-90
2023/04/21 17:27:32;;;;;;;1.98;0.98;;;16.20;3.00;;;;;;6094303;23;20109;-90
2023/04/21 17:30:21;;;;;;;;;;;16.10;1.00;;;;;;6094763;23;20030;-88
2023/04/21 17:33:09;;;;;;;2.83;1.58;;;16.00;1.00;;;;;;6094044;23;19932;-89
2023/04/21 17:36:07;;;;;;;0.98;0.95;;;15.80;1.00;;;;;;6094991;23;20036;-91
2023/04/21 17:38:58;;;;;;;1.10;0.93;;;15.70;1.00;;;;;;6094536;23;20053;-88
2023/04/21 17:41:47;;;;;;;7.63;1.20;;;15.60;1.00;;;;;;6093841;23;20026;-90
2023/04/21 17:44:34;;;;;;;1.05;0.95;;;15.40;1.00;;;;;;6092701;23;20053;-90
2023/04/21 17:47:22;;;;;;;1.45;1.27;;;15.40;1.00;;;;;;6094037;23;20022;-89
2023/04/21 17:50:13;;;;;;;2.08;1.38;;;15.20;1.00;;;;;;6095123;23;20027;-90
2023/04/21 17:53:00;;;;;;;2.65;1.75;;;15.10;1.00;;;;;;6095276;23;20026;-89
2023/04/21 17:55:50;;;;;;;4.60;1.90;;;15.00;1.00;;;;;;6092208;23;20026;-90
2023/04/21 17:58:39;;;;;;;1.88;1.45;;;14.90;1.00;;;;;;6097203;23;20077;-90
2023/04/21 18:01:27;;;;;;;5.45;1.58;;;14.80;1.00;;;;;;6094562;23;20026;-88
2023/04/21 18:04:16;;;;;;;2.10;1.30;;;14.70;1.00;;;;;;6092351;23;20034;-89
2023/04/21 18:07:06;;;;;;;2.90;1.27;;;14.60;1.00;;;;;;6092159;23;20047;-88
2023/04/21 18:09:58;;;;;;;2.33;1.48;;;14.50;1.00;;;;;;6092409;23;20388;-89
2023/04/21 18:12:48;;;;;;;1.58;1.00;;;14.40;1.00;;;;;;6093119;23;20042;-91
2023/04/21 18:15:36;;;;;;;2.13;1.40;;;14.40;1.00;;;;;;6092532;23;20029;-90
2023/04/21 18:18:25;;;;;;;4.35;1.40;;;14.30;1.00;;;;;;6094958;23;20436;-88
2023/04/21 18:21:13;;;;;;;1.95;1.10;;;14.20;1.00;;;;;;6093782;23;20045;-89
2023/04/21 18:24:01;;;;;;;1.98;1.40;;;14.10;1.00;;;;;;6094530;23;20444;-88
2023/04/21 18:26:50;;;;;;;3.00;1.60;;;14.00;1.00;;;;;;6093104;23;20421;-90
2023/04/21 18:29:38;;;;;;;3.72;1.90;;;13.90;1.00;;;;;;6092100;23;20030;-88
2023/04/21 18:32:25;;;;;;;4.70;1.50;;;13.90;1.00;;;;;;6096729;23;20346;-88
2023/04/21 18:35:15;;;;;;;2.83;1.98;;;13.90;1.00;;;;;;6094823;23;20026;-90
2023/04/21 18:38:03;;;;;;;2.97;2.00;;;13.80;1.00;;;;;;6091123;23;20034;-90
2023/04/21 18:40:53;;;;;;;3.78;2.38;;;13.80;5.20;;;;;;6095316;23;20026;-86
2023/04/21 18:43:40;;;;;;;5.53;2.45;;;13.80;1.70;;;;;;6095995;23;20018;-89
2023/04/21 18:46:30;;;;;;;2.58;1.70;;;13.80;1.90;;;;;;6095731;23;20022;-89
2023/04/21 18:49:25;;;;;;;1.63;1.30;;;13.70;1.40;;;;;;6095247;23;20026;-88
2023/04/21 18:52:15;;;;;;;4.30;1.70;;;13.70;3.00;;;;;;6093213;23;20147;-90
2023/04/21 18:55:06;;;;;;;3.00;1.70;;;13.70;4.60;;;;;;6093596;23;20023;-89
2023/04/21 18:57:53;;;;;;;2.92;1.80;;;13.60;2.10;;;;;;6097384;23;20026;-91
2023/04/21 19:00:41;;;;;;;2.55;2.05;;;13.60;2.90;;;;;;6095523;23;20031;-88
2023/04/21 19:03:34;;;;;;;1.67;1.50;;;13.60;5.10;;;;;;6093671;23;20052;-88
2023/04/21 19:06:26;;;;;;;2.60;1.70;;;13.50;8.80;;;;;;6094508;23;20307;-88
2023/04/21 19:09:14;;;;;;;3.65;1.80;;;13.40;10.70;;;;;;6094203;23;20092;-88
2023/04/21 19:12:02;;;;;;;1.65;1.33;;;13.40;17.20;;;;;;6095553;23;20092;-88
2023/04/21 19:14:50;;;;;;;3.08;1.48;;;13.30;15.40;;;;;;6094122;23;20038;-89
2023/04/21 19:17:40;;;;;;;5.63;1.60;;;13.40;16.80;;;;;;6091927;23;20034;-88
2023/04/21 19:20:29;;;;;;;2.95;1.85;;;13.30;18.10;;;;;;6092509;23;20358;-91
2023/04/21 19:23:16;;;;;;;3.35;1.77;;;13.20;22.00;;;;;;6094573;23;20122;-87
2023/04/21 19:26:27;;;;;;;4.47;4.07;;;13.10;31.40;;;;;;6092249;23;20019;-88
2023/04/21 19:29:15;;;;;;;2.25;1.80;;;13.00;45.50;;;;;;6092296;23;20122;-89
2023/04/21 19:32:03;;;;;;;6.63;1.88;;;12.90;51.80;;;;;;6093803;23;20027;-90
2023/04/21 19:34:50;;;;;;;2.17;1.70;;;12.80;51.20;;;;;;6093181;23;20026;-89
2023/04/21 19:37:38;;;;;;;6.00;1.80;;;12.70;41.00;;;;;;6093621;23;20022;-88
2023/04/21 19:40:30;;;;;;;2.03;1.80;;;12.70;43.80;;;;;;6092549;23;20026;-88
2023/04/21 19:43:22;;;;;;;2.40;1.90;;;12.70;44.90;;;;;;6095270;23;20086;-90
2023/04/21 19:46:12;;;;;;;3.13;1.92;;;12.60;38.70;;;;;;6094715;23;20035;-92
2023/04/21 19:49:00;;;;;;;2.35;1.67;;;12.60;43.10;;;;;;6096949;23;20037;-90
2023/04/21 19:51:48;;;;;;;5.45;1.73;;;12.60;37.70;;;;;;6093205;23;20452;-89
2023/04/21 19:54:41;;;;;;;2.50;1.70;;;12.60;41.70;;;;;;6093885;23;20023;-90
2023/04/21 19:57:29;;;;;;;1.98;1.40;;;12.70;40.20;;;;;;6094519;23;20022;-89
2023/04/21 20:00:16;;;;;;;2.30;1.98;;;12.90;30.70;;;;;;6095628;23;20030;-88
2023/04/21 20:03:05;;;;;;;3.35;1.65;;;13.10;28.20;;;;;;6093635;23;20044;-89
2023/04/21 20:05:53;;;;;;;4.30;2.47;;;13.10;35.30;;;;;;6094852;23;20030;-88
2023/04/21 20:08:40;;;;;;;2.28;1.77;;;13.00;45.20;;;;;;6095041;23;20026;-89
2023/04/21 20:11:30;;;;;;;3.50;2.10;;;12.80;55.30;;;;;;6094418;23;20037;-88
2023/04/21 20:14:19;;;;;;;2.75;2.05;;;12.70;96.10;;;;;;6092667;23;20034;-89
2023/04/21 20:17:09;;;;;;;1.77;1.63;;;12.60;99.90;;;;;;6094414;23;20026;-89
2023/04/21 20:20:00;;;;;;;2.35;1.98;;;12.60;96.40;;;;;;6095232;23;20023;-89
2023/04/21 20:22:47;;;;;;;3.33;1.80;;;12.70;94.20;;;;;;6095986;23;20022;-86
2023/04/21 20:25:35;;;;;;;2.28;1.88;;;12.80;85.70;;;;;;6095024;23;20026;-90
2023/04/21 20:28:26;;;;;;;2.30;2.10;;;12.80;93.20;;;;;;6096598;23;20139;-89
2023/04/21 20:31:22;;;;;;;3.03;1.88;;;12.90;76.30;;;;;;6094769;23;20034;-90
2023/04/21 20:34:10;;;;;;;5.15;1.77;;;12.90;89.00;;;;;;6101512;23;20030;-89
2023/04/21 20:36:58;;;;;;;2.30;1.90;;;12.90;87.60;;;;;;6099548;23;20485;-89
2023/04/21 20:39:45;;;;;;;3.22;1.67;;;12.90;78.20;;;;;;6095344;23;20110;-89
2023/04/21 20:42:34;;;;;;;2.25;1.80;;;13.00;79.30;;;;;;6094730;23;20026;-90
2023/04/21 20:45:21;;;;;;;2.70;2.00;;;13.00;77.30;;;;;;6094986;23;20026;-89
2023/04/21 20:48:11;;;;;;;2.53;2.00;;;13.00;65.70;;;;;;6095224;23;20037;-90
2023/04/21 20:51:02;;;;;;;3.63;2.28;;;12.90;70.60;;;;;;6095835;23;20026;-89
2023/04/21 20:53:55;;;;;;;2.33;2.08;;;12.70;79.20;;;;;;6093787;23;20030;-91
2023/04/21 20:56:49;;;;;;;2.83;2.13;;;12.60;95.60;;;;;;6094539;23;20022;-88
2023/04/21 20:59:37;;;;;;;2.78;2.08;;;12.50;99.90;;;;;;6095501;23;20022;-88
2023/04/21 21:02:25;;;;;;;2.97;2.20;;;12.40;99.90;;;;;;6092466;23;20034;-89
2023/04/21 21:05:13;;;;;;;2.35;2.00;;;12.30;99.90;;;;;;6094262;23;20038;-89